sensor_id;sensor_type;location;lat;lon;timestamp;temperature;humidity
64563;SHT31;50961;48.184;11.636;2022-07-03T00:00:34;17.45;76.86
64563;SHT31;50961;48.184;11.636;2022-07-03T00:02:59;17.45;76.96
64563;SHT31;50961;48.184;11.636;2022-07-03T00:05:25;17.40;76.97
64563;SHT31;50961;48.184;11.636;2022-07-03T00:07:50;17.38;77.31
64563;SHT31;50961;48.184;11.636;2022-07-03T00:10:16;17.42;77.51
64563;SHT31;50961;48.184;11.636;2022-07-03T00:12:41;17.44;77.81
64563;SHT31;50961;48.184;11.636;2022-07-03T00:15:07;17.42;77.97
64563;SHT31;50961;48.184;11.636;2022-07-03T00:17:33;17.47;77.98
64563;SHT31;50961;48.184;11.636;2022-07-03T00:19:58;17.47;77.93
64563;SHT31;50961;48.184;11.636;2022-07-03T00:22:25;17.52;77.83
64563;SHT31;50961;48.184;11.636;2022-07-03T00:24:52;17.51;77.81
64563;SHT31;50961;48.184;11.636;2022-07-03T00:27:20;17.54;77.84
64563;SHT31;50961;48.184;11.636;2022-07-03T00:29:46;17.52;76.74
64563;SHT31;50961;48.184;11.636;2022-07-03T00:32:14;17.62;75.82
64563;SHT31;50961;48.184;11.636;2022-07-03T00:34:43;17.64;75.18
64563;SHT31;50961;48.184;11.636;2022-07-03T00:37:09;17.58;75.67
64563;SHT31;50961;48.184;11.636;2022-07-03T00:39:44;17.61;75.70
64563;SHT31;50961;48.184;11.636;2022-07-03T00:42:12;17.62;75.68
64563;SHT31;50961;48.184;11.636;2022-07-03T00:44:56;17.65;75.54
64563;SHT31;50961;48.184;11.636;2022-07-03T00:47:23;17.67;75.45
64563;SHT31;50961;48.184;11.636;2022-07-03T00:49:54;17.67;75.88
64563;SHT31;50961;48.184;11.636;2022-07-03T00:52:22;17.67;75.22
64563;SHT31;50961;48.184;11.636;2022-07-03T00:54:53;17.67;75.50
64563;SHT31;50961;48.184;11.636;2022-07-03T00:57:19;17.71;75.58
64563;SHT31;50961;48.184;11.636;2022-07-03T00:59:45;17.71;75.36
64563;SHT31;50961;48.184;11.636;2022-07-03T01:02:40;17.75;75.09
64563;SHT31;50961;48.184;11.636;2022-07-03T01:05:18;17.64;74.95
64563;SHT31;50961;48.184;11.636;2022-07-03T01:15:58;17.72;76.09
64563;SHT31;50961;48.184;11.636;2022-07-03T01:21:08;17.75;75.82
64563;SHT31;50961;48.184;11.636;2022-07-03T01:26:27;17.68;75.51
64563;SHT31;50961;48.184;11.636;2022-07-03T01:28:53;17.68;75.83
64563;SHT31;50961;48.184;11.636;2022-07-03T01:31:19;17.67;75.70
64563;SHT31;50961;48.184;11.636;2022-07-03T01:33:50;17.61;75.55
64563;SHT31;50961;48.184;11.636;2022-07-03T01:36:17;17.62;75.68
64563;SHT31;50961;48.184;11.636;2022-07-03T01:38:43;17.62;75.68
64563;SHT31;50961;48.184;11.636;2022-07-03T01:41:11;17.62;75.81
64563;SHT31;50961;48.184;11.636;2022-07-03T01:43:39;17.62;75.95
64563;SHT31;50961;48.184;11.636;2022-07-03T01:46:06;17.59;76.30
64563;SHT31;50961;48.184;11.636;2022-07-03T01:48:33;17.58;76.99
64563;SHT31;50961;48.184;11.636;2022-07-03T01:50:59;17.62;77.25
64563;SHT31;50961;48.184;11.636;2022-07-03T01:53:27;17.62;77.57
64563;SHT31;50961;48.184;11.636;2022-07-03T01:55:57;17.55;77.50
64563;SHT31;50961;48.184;11.636;2022-07-03T01:58:24;17.58;77.29
64563;SHT31;50961;48.184;11.636;2022-07-03T02:03:32;17.61;77.81
64563;SHT31;50961;48.184;11.636;2022-07-03T02:06:09;17.59;77.29
64563;SHT31;50961;48.184;11.636;2022-07-03T02:08:43;17.57;77.32
64563;SHT31;50961;48.184;11.636;2022-07-03T02:11:15;17.62;77.29
64563;SHT31;50961;48.184;11.636;2022-07-03T02:16:38;17.62;77.59
64563;SHT31;50961;48.184;11.636;2022-07-03T02:19:08;17.62;77.68
64563;SHT31;50961;48.184;11.636;2022-07-03T02:21:40;17.55;77.91
64563;SHT31;50961;48.184;11.636;2022-07-03T02:24:27;17.45;78.13
64563;SHT31;50961;48.184;11.636;2022-07-03T02:27:04;17.35;78.49
64563;SHT31;50961;48.184;11.636;2022-07-03T02:29:36;17.30;78.91
64563;SHT31;50961;48.184;11.636;2022-07-03T02:32:03;17.34;78.78
64563;SHT31;50961;48.184;11.636;2022-07-03T02:34:31;17.27;78.89
64563;SHT31;50961;48.184;11.636;2022-07-03T02:37:05;17.20;79.09
64563;SHT31;50961;48.184;11.636;2022-07-03T02:39:41;17.24;78.94
64563;SHT31;50961;48.184;11.636;2022-07-03T02:42:25;17.27;78.87
64563;SHT31;50961;48.184;11.636;2022-07-03T02:44:53;17.26;79.45
64563;SHT31;50961;48.184;11.636;2022-07-03T02:47:27;17.28;79.55
64563;SHT31;50961;48.184;11.636;2022-07-03T02:50:05;17.26;79.54
64563;SHT31;50961;48.184;11.636;2022-07-03T03:00:57;17.26;79.74
64563;SHT31;50961;48.184;11.636;2022-07-03T03:03:26;17.21;79.24
64563;SHT31;50961;48.184;11.636;2022-07-03T03:05:55;17.24;79.65
64563;SHT31;50961;48.184;11.636;2022-07-03T03:11:03;17.14;80.07
64563;SHT31;50961;48.184;11.636;2022-07-03T03:13:31;17.17;79.72
64563;SHT31;50961;48.184;11.636;2022-07-03T03:16:08;17.16;79.79
64563;SHT31;50961;48.184;11.636;2022-07-03T03:18:38;17.14;79.88
64563;SHT31;50961;48.184;11.636;2022-07-03T03:21:08;17.13;79.80
64563;SHT31;50961;48.184;11.636;2022-07-03T03:23:50;17.13;79.38
64563;SHT31;50961;48.184;11.636;2022-07-03T03:26:25;17.04;79.82
64563;SHT31;50961;48.184;11.636;2022-07-03T03:28:51;16.99;80.10
64563;SHT31;50961;48.184;11.636;2022-07-03T03:31:17;16.96;80.08
64563;SHT31;50961;48.184;11.636;2022-07-03T03:33:45;16.94;80.33
64563;SHT31;50961;48.184;11.636;2022-07-03T03:36:13;16.93;79.97
64563;SHT31;50961;48.184;11.636;2022-07-03T03:38:40;16.99;79.91
64563;SHT31;50961;48.184;11.636;2022-07-03T03:41:06;16.92;80.06
64563;SHT31;50961;48.184;11.636;2022-07-03T03:43:32;16.92;79.86
64563;SHT31;50961;48.184;11.636;2022-07-03T03:45:59;16.96;79.84
64563;SHT31;50961;48.184;11.636;2022-07-03T03:48:26;16.99;79.82
64563;SHT31;50961;48.184;11.636;2022-07-03T03:50:51;17.02;79.85
64563;SHT31;50961;48.184;11.636;2022-07-03T03:53:18;17.02;79.89
64563;SHT31;50961;48.184;11.636;2022-07-03T03:56:10;17.06;80.01
64563;SHT31;50961;48.184;11.636;2022-07-03T03:58:37;17.04;79.97
64563;SHT31;50961;48.184;11.636;2022-07-03T04:01:04;17.06;79.95
64563;SHT31;50961;48.184;11.636;2022-07-03T04:03:31;17.13;80.00
64563;SHT31;50961;48.184;11.636;2022-07-03T04:05:57;17.09;80.18
64563;SHT31;50961;48.184;11.636;2022-07-03T04:08:24;17.03;80.11
64563;SHT31;50961;48.184;11.636;2022-07-03T04:10:50;17.06;79.96
64563;SHT31;50961;48.184;11.636;2022-07-03T04:13:16;17.09;80.10
64563;SHT31;50961;48.184;11.636;2022-07-03T04:15:42;17.14;80.12
64563;SHT31;50961;48.184;11.636;2022-07-03T04:18:07;17.19;80.34
64563;SHT31;50961;48.184;11.636;2022-07-03T04:20:33;17.21;80.53
64563;SHT31;50961;48.184;11.636;2022-07-03T04:22:59;17.28;80.41
64563;SHT31;50961;48.184;11.636;2022-07-03T04:25:25;17.38;80.26
64563;SHT31;50961;48.184;11.636;2022-07-03T04:27:50;17.41;80.24
64563;SHT31;50961;48.184;11.636;2022-07-03T04:30:16;17.40;80.39
64563;SHT31;50961;48.184;11.636;2022-07-03T04:32:41;17.48;80.24
64563;SHT31;50961;48.184;11.636;2022-07-03T04:35:07;17.54;80.18
64563;SHT31;50961;48.184;11.636;2022-07-03T04:37:33;17.61;80.09
64563;SHT31;50961;48.184;11.636;2022-07-03T04:39:59;17.69;79.97
64563;SHT31;50961;48.184;11.636;2022-07-03T04:42:24;17.77;79.88
64563;SHT31;50961;48.184;11.636;2022-07-03T04:44:50;17.85;79.93
64563;SHT31;50961;48.184;11.636;2022-07-03T04:47:15;17.95;79.85
64563;SHT31;50961;48.184;11.636;2022-07-03T04:49:41;17.97;80.21
64563;SHT31;50961;48.184;11.636;2022-07-03T04:52:07;18.10;80.04
64563;SHT31;50961;48.184;11.636;2022-07-03T04:54:33;18.24;80.13
64563;SHT31;50961;48.184;11.636;2022-07-03T04:56:58;18.44;79.58
64563;SHT31;50961;48.184;11.636;2022-07-03T04:59:23;18.55;79.41
64563;SHT31;50961;48.184;11.636;2022-07-03T05:01:49;18.61;79.44
64563;SHT31;50961;48.184;11.636;2022-07-03T05:04:18;18.67;78.97
64563;SHT31;50961;48.184;11.636;2022-07-03T05:06:44;18.72;78.87
64563;SHT31;50961;48.184;11.636;2022-07-03T05:09:09;18.81;78.48
64563;SHT31;50961;48.184;11.636;2022-07-03T05:11:35;18.91;78.14
64563;SHT31;50961;48.184;11.636;2022-07-03T05:14:02;18.98;78.19
64563;SHT31;50961;48.184;11.636;2022-07-03T05:16:28;19.01;78.26
64563;SHT31;50961;48.184;11.636;2022-07-03T05:18:53;19.13;77.73
64563;SHT31;50961;48.184;11.636;2022-07-03T05:21:18;19.27;77.11
64563;SHT31;50961;48.184;11.636;2022-07-03T05:23:44;19.33;77.16
64563;SHT31;50961;48.184;11.636;2022-07-03T05:26:09;19.43;77.26
64563;SHT31;50961;48.184;11.636;2022-07-03T05:28:35;19.41;77.25
64563;SHT31;50961;48.184;11.636;2022-07-03T05:31:00;19.57;76.86
64563;SHT31;50961;48.184;11.636;2022-07-03T05:33:25;19.63;76.89
64563;SHT31;50961;48.184;11.636;2022-07-03T05:35:51;19.78;76.29
64563;SHT31;50961;48.184;11.636;2022-07-03T05:38:16;19.84;76.08
64563;SHT31;50961;48.184;11.636;2022-07-03T05:41:00;19.89;75.36
64563;SHT31;50961;48.184;11.636;2022-07-03T05:43:26;20.09;75.17
64563;SHT31;50961;48.184;11.636;2022-07-03T05:45:51;20.11;74.86
64563;SHT31;50961;48.184;11.636;2022-07-03T05:48:16;20.14;74.75
64563;SHT31;50961;48.184;11.636;2022-07-03T05:50:42;20.14;74.96
64563;SHT31;50961;48.184;11.636;2022-07-03T05:53:07;20.24;74.72
64563;SHT31;50961;48.184;11.636;2022-07-03T05:55:32;20.29;74.66
64563;SHT31;50961;48.184;11.636;2022-07-03T05:57:58;20.40;75.07
64563;SHT31;50961;48.184;11.636;2022-07-03T06:00:23;20.52;74.46
64563;SHT31;50961;48.184;11.636;2022-07-03T06:02:48;20.57;74.34
64563;SHT31;50961;48.184;11.636;2022-07-03T06:05:14;20.64;74.04
64563;SHT31;50961;48.184;11.636;2022-07-03T06:07:39;20.74;73.66
64563;SHT31;50961;48.184;11.636;2022-07-03T06:10:05;20.76;73.88
64563;SHT31;50961;48.184;11.636;2022-07-03T06:12:30;20.84;74.10
64563;SHT31;50961;48.184;11.636;2022-07-03T06:14:56;20.94;73.98
64563;SHT31;50961;48.184;11.636;2022-07-03T06:17:21;21.02;73.68
64563;SHT31;50961;48.184;11.636;2022-07-03T06:19:46;21.11;73.62
64563;SHT31;50961;48.184;11.636;2022-07-03T06:22:12;21.29;71.08
64563;SHT31;50961;48.184;11.636;2022-07-03T06:24:37;21.38;71.48
64563;SHT31;50961;48.184;11.636;2022-07-03T06:27:03;21.41;71.63
64563;SHT31;50961;48.184;11.636;2022-07-03T06:29:29;21.58;71.22
64563;SHT31;50961;48.184;11.636;2022-07-03T06:31:54;21.76;70.42
64563;SHT31;50961;48.184;11.636;2022-07-03T06:34:19;21.80;69.59
64563;SHT31;50961;48.184;11.636;2022-07-03T06:36:45;21.98;69.35
64563;SHT31;50961;48.184;11.636;2022-07-03T06:39:10;22.06;69.07
64563;SHT31;50961;48.184;11.636;2022-07-03T06:41:35;22.24;68.66
64563;SHT31;50961;48.184;11.636;2022-07-03T06:44:01;22.33;68.19
64563;SHT31;50961;48.184;11.636;2022-07-03T06:46:26;22.34;68.54
64563;SHT31;50961;48.184;11.636;2022-07-03T06:48:51;22.45;68.86
64563;SHT31;50961;48.184;11.636;2022-07-03T06:51:17;22.54;67.49
64563;SHT31;50961;48.184;11.636;2022-07-03T06:53:42;22.69;66.73
64563;SHT31;50961;48.184;11.636;2022-07-03T06:56:08;22.81;68.05
64563;SHT31;50961;48.184;11.636;2022-07-03T06:58:33;22.93;65.65
64563;SHT31;50961;48.184;11.636;2022-07-03T07:00:59;23.03;65.47
64563;SHT31;50961;48.184;11.636;2022-07-03T07:03:24;23.07;64.83
64563;SHT31;50961;48.184;11.636;2022-07-03T07:05:49;23.23;65.01
64563;SHT31;50961;48.184;11.636;2022-07-03T07:08:15;23.33;63.68
64563;SHT31;50961;48.184;11.636;2022-07-03T07:10:40;23.38;63.17
64563;SHT31;50961;48.184;11.636;2022-07-03T07:13:05;23.48;62.62
64563;SHT31;50961;48.184;11.636;2022-07-03T07:15:31;23.51;63.48
64563;SHT31;50961;48.184;11.636;2022-07-03T07:17:56;23.58;64.25
64563;SHT31;50961;48.184;11.636;2022-07-03T07:20:22;23.62;63.51
64563;SHT31;50961;48.184;11.636;2022-07-03T07:22:47;23.67;63.42
64563;SHT31;50961;48.184;11.636;2022-07-03T07:25:12;23.72;62.41
64563;SHT31;50961;48.184;11.636;2022-07-03T07:27:38;23.84;62.87
64563;SHT31;50961;48.184;11.636;2022-07-03T07:30:03;23.88;62.68
64563;SHT31;50961;48.184;11.636;2022-07-03T07:32:29;23.90;62.27
64563;SHT31;50961;48.184;11.636;2022-07-03T07:34:54;23.99;62.90
64563;SHT31;50961;48.184;11.636;2022-07-03T07:37:20;24.06;62.68
64563;SHT31;50961;48.184;11.636;2022-07-03T07:39:45;24.15;62.85
64563;SHT31;50961;48.184;11.636;2022-07-03T07:42:11;24.26;62.38
64563;SHT31;50961;48.184;11.636;2022-07-03T07:44:36;24.36;63.11
64563;SHT31;50961;48.184;11.636;2022-07-03T07:47:01;24.40;61.72
64563;SHT31;50961;48.184;11.636;2022-07-03T07:49:27;24.36;62.06
64563;SHT31;50961;48.184;11.636;2022-07-03T07:51:52;24.44;62.01
64563;SHT31;50961;48.184;11.636;2022-07-03T07:54:18;24.49;62.47
64563;SHT31;50961;48.184;11.636;2022-07-03T07:56:43;24.56;61.92
64563;SHT31;50961;48.184;11.636;2022-07-03T07:59:08;24.65;61.34
64563;SHT31;50961;48.184;11.636;2022-07-03T08:01:34;24.75;62.43
64563;SHT31;50961;48.184;11.636;2022-07-03T08:04:18;24.87;60.05
64563;SHT31;50961;48.184;11.636;2022-07-03T08:07:02;24.87;60.71
64563;SHT31;50961;48.184;11.636;2022-07-03T08:09:27;24.96;60.32
64563;SHT31;50961;48.184;11.636;2022-07-03T08:11:53;25.01;59.75
64563;SHT31;50961;48.184;11.636;2022-07-03T08:14:18;25.12;60.30
64563;SHT31;50961;48.184;11.636;2022-07-03T08:16:43;25.25;59.92
64563;SHT31;50961;48.184;11.636;2022-07-03T08:19:11;25.33;58.32
64563;SHT31;50961;48.184;11.636;2022-07-03T08:21:36;25.30;57.83
64563;SHT31;50961;48.184;11.636;2022-07-03T08:24:02;25.39;58.60
64563;SHT31;50961;48.184;11.636;2022-07-03T08:26:27;25.46;58.79
64563;SHT31;50961;48.184;11.636;2022-07-03T08:28:52;25.56;57.47
64563;SHT31;50961;48.184;11.636;2022-07-03T08:31:18;25.54;56.08
64563;SHT31;50961;48.184;11.636;2022-07-03T08:33:43;25.59;55.33
64563;SHT31;50961;48.184;11.636;2022-07-03T08:36:08;25.67;55.83
64563;SHT31;50961;48.184;11.636;2022-07-03T08:38:34;25.76;55.95
64563;SHT31;50961;48.184;11.636;2022-07-03T08:41:01;25.83;53.50
64563;SHT31;50961;48.184;11.636;2022-07-03T08:43:27;25.97;52.27
64563;SHT31;50961;48.184;11.636;2022-07-03T08:45:54;25.97;52.39
64563;SHT31;50961;48.184;11.636;2022-07-03T08:48:21;26.02;51.98
64563;SHT31;50961;48.184;11.636;2022-07-03T08:50:47;26.08;51.83
64563;SHT31;50961;48.184;11.636;2022-07-03T08:53:13;26.14;52.32
64563;SHT31;50961;48.184;11.636;2022-07-03T08:55:38;26.29;53.28
64563;SHT31;50961;48.184;11.636;2022-07-03T08:58:05;26.39;53.11
64563;SHT31;50961;48.184;11.636;2022-07-03T09:00:31;26.52;51.53
64563;SHT31;50961;48.184;11.636;2022-07-03T09:02:59;26.59;51.14
64563;SHT31;50961;48.184;11.636;2022-07-03T09:05:24;26.60;50.84
64563;SHT31;50961;48.184;11.636;2022-07-03T09:07:51;26.63;50.42
64563;SHT31;50961;48.184;11.636;2022-07-03T09:10:17;26.78;50.44
64563;SHT31;50961;48.184;11.636;2022-07-03T09:12:45;26.84;50.18
64563;SHT31;50961;48.184;11.636;2022-07-03T09:15:11;26.91;49.69
64563;SHT31;50961;48.184;11.636;2022-07-03T09:17:36;27.00;48.02
64563;SHT31;50961;48.184;11.636;2022-07-03T09:20:04;27.07;48.69
64563;SHT31;50961;48.184;11.636;2022-07-03T09:22:36;27.11;48.37
64563;SHT31;50961;48.184;11.636;2022-07-03T09:25:13;27.15;47.79
64563;SHT31;50961;48.184;11.636;2022-07-03T09:27:52;27.20;46.56
64563;SHT31;50961;48.184;11.636;2022-07-03T09:30:19;27.27;47.53
64563;SHT31;50961;48.184;11.636;2022-07-03T09:32:46;27.41;46.06
64563;SHT31;50961;48.184;11.636;2022-07-03T09:35:16;27.42;44.13
64563;SHT31;50961;48.184;11.636;2022-07-03T09:38:03;27.56;44.91
64563;SHT31;50961;48.184;11.636;2022-07-03T09:40:52;27.55;44.61
64563;SHT31;50961;48.184;11.636;2022-07-03T09:43:41;27.62;44.75
64563;SHT31;50961;48.184;11.636;2022-07-03T09:46:06;27.75;46.00
64563;SHT31;50961;48.184;11.636;2022-07-03T09:48:40;27.92;45.73
64563;SHT31;50961;48.184;11.636;2022-07-03T09:53:48;28.10;43.45
64563;SHT31;50961;48.184;11.636;2022-07-03T09:56:14;28.27;44.42
64563;SHT31;50961;48.184;11.636;2022-07-03T09:58:41;28.30;42.53
64563;SHT31;50961;48.184;11.636;2022-07-03T10:01:23;28.37;41.04
64563;SHT31;50961;48.184;11.636;2022-07-03T10:03:48;28.45;41.71
64563;SHT31;50961;48.184;11.636;2022-07-03T10:06:14;28.51;40.50
64563;SHT31;50961;48.184;11.636;2022-07-03T10:08:41;28.50;40.79
64563;SHT31;50961;48.184;11.636;2022-07-03T10:11:08;28.54;41.21
64563;SHT31;50961;48.184;11.636;2022-07-03T10:13:37;28.71;40.75
64563;SHT31;50961;48.184;11.636;2022-07-03T10:16:05;28.87;40.64
64563;SHT31;50961;48.184;11.636;2022-07-03T10:18:32;28.92;38.64
64563;SHT31;50961;48.184;11.636;2022-07-03T10:21:01;29.08;40.22
64563;SHT31;50961;48.184;11.636;2022-07-03T10:23:26;29.23;42.02
64563;SHT31;50961;48.184;11.636;2022-07-03T10:25:53;29.29;40.30
64563;SHT31;50961;48.184;11.636;2022-07-03T10:28:19;29.36;41.34
64563;SHT31;50961;48.184;11.636;2022-07-03T10:30:46;29.31;40.41
64563;SHT31;50961;48.184;11.636;2022-07-03T10:33:12;29.40;40.11
64563;SHT31;50961;48.184;11.636;2022-07-03T10:35:40;29.40;37.75
64563;SHT31;50961;48.184;11.636;2022-07-03T10:38:30;29.57;36.87
64563;SHT31;50961;48.184;11.636;2022-07-03T10:41:06;29.60;35.80
64563;SHT31;50961;48.184;11.636;2022-07-03T10:43:52;29.70;38.98
64563;SHT31;50961;48.184;11.636;2022-07-03T10:46:36;29.86;39.35
64563;SHT31;50961;48.184;11.636;2022-07-03T10:51:56;29.98;36.37
64563;SHT31;50961;48.184;11.636;2022-07-03T10:54:22;30.18;37.31
64563;SHT31;50961;48.184;11.636;2022-07-03T10:59:23;30.29;35.20
64563;SHT31;50961;48.184;11.636;2022-07-03T11:01:48;30.42;36.93
64563;SHT31;50961;48.184;11.636;2022-07-03T11:04:13;30.21;34.69
64563;SHT31;50961;48.184;11.636;2022-07-03T11:09:16;30.46;34.37
64563;SHT31;50961;48.184;11.636;2022-07-03T11:11:49;30.49;33.81
64563;SHT31;50961;48.184;11.636;2022-07-03T11:19:43;30.55;32.71
64563;SHT31;50961;48.184;11.636;2022-07-03T11:22:15;30.63;32.57
64563;SHT31;50961;48.184;11.636;2022-07-03T11:24:44;30.53;32.81
64563;SHT31;50961;48.184;11.636;2022-07-03T11:27:23;30.52;31.71
64563;SHT31;50961;48.184;11.636;2022-07-03T11:29:54;30.59;33.64
64563;SHT31;50961;48.184;11.636;2022-07-03T11:32:46;30.64;33.87
64563;SHT31;50961;48.184;11.636;2022-07-03T11:36:04;30.76;33.66
64563;SHT31;50961;48.184;11.636;2022-07-03T11:38:27;30.87;33.19
64563;SHT31;50961;48.184;11.636;2022-07-03T11:40:56;30.84;31.97
64563;SHT31;50961;48.184;11.636;2022-07-03T11:43:22;30.80;33.50
64563;SHT31;50961;48.184;11.636;2022-07-03T11:45:48;31.04;35.56
64563;SHT31;50961;48.184;11.636;2022-07-03T11:48:20;31.11;34.45
64563;SHT31;50961;48.184;11.636;2022-07-03T11:50:47;31.14;32.53
64563;SHT31;50961;48.184;11.636;2022-07-03T11:53:27;31.15;32.76
64563;SHT31;50961;48.184;11.636;2022-07-03T11:56:07;31.41;34.33
64563;SHT31;50961;48.184;11.636;2022-07-03T11:58:48;31.49;32.46
64563;SHT31;50961;48.184;11.636;2022-07-03T12:09:27;31.49;32.45
64563;SHT31;50961;48.184;11.636;2022-07-03T12:12:09;31.41;31.81
64563;SHT31;50961;48.184;11.636;2022-07-03T12:17:00;31.39;32.29
64563;SHT31;50961;48.184;11.636;2022-07-03T12:19:26;31.26;32.51
64563;SHT31;50961;48.184;11.636;2022-07-03T12:21:51;31.18;33.81
64563;SHT31;50961;48.184;11.636;2022-07-03T12:24:17;31.32;35.56
64563;SHT31;50961;48.184;11.636;2022-07-03T12:26:42;31.53;35.35
64563;SHT31;50961;48.184;11.636;2022-07-03T12:29:10;31.67;35.78
64563;SHT31;50961;48.184;11.636;2022-07-03T12:31:40;31.84;34.62
64563;SHT31;50961;48.184;11.636;2022-07-03T12:34:06;32.01;34.91
64563;SHT31;50961;48.184;11.636;2022-07-03T12:36:31;31.94;32.77
64563;SHT31;50961;48.184;11.636;2022-07-03T12:38:58;31.97;32.76
64563;SHT31;50961;48.184;11.636;2022-07-03T12:41:25;32.03;33.90
64563;SHT31;50961;48.184;11.636;2022-07-03T12:43:51;32.16;34.75
64563;SHT31;50961;48.184;11.636;2022-07-03T12:46:21;32.23;34.20
64563;SHT31;50961;48.184;11.636;2022-07-03T12:48:48;32.35;34.00
64563;SHT31;50961;48.184;11.636;2022-07-03T12:51:15;32.21;33.35
64563;SHT31;50961;48.184;11.636;2022-07-03T12:53:41;32.41;33.17
64563;SHT31;50961;48.184;11.636;2022-07-03T12:56:08;32.34;33.39
64563;SHT31;50961;48.184;11.636;2022-07-03T12:58:35;32.38;34.08
64563;SHT31;50961;48.184;11.636;2022-07-03T13:01:33;32.58;34.70
64563;SHT31;50961;48.184;11.636;2022-07-03T13:03:59;32.38;32.96
64563;SHT31;50961;48.184;11.636;2022-07-03T13:06:25;32.42;33.85
64563;SHT31;50961;48.184;11.636;2022-07-03T13:08:59;32.65;33.15
64563;SHT31;50961;48.184;11.636;2022-07-03T13:11:33;32.62;33.52
64563;SHT31;50961;48.184;11.636;2022-07-03T13:16:41;32.57;32.16
64563;SHT31;50961;48.184;11.636;2022-07-03T13:19:08;32.61;33.82
64563;SHT31;50961;48.184;11.636;2022-07-03T13:21:34;32.71;33.90
64563;SHT31;50961;48.184;11.636;2022-07-03T13:24:00;32.78;33.21
64563;SHT31;50961;48.184;11.636;2022-07-03T13:26:26;32.87;33.57
64563;SHT31;50961;48.184;11.636;2022-07-03T13:28:51;32.98;34.03
64563;SHT31;50961;48.184;11.636;2022-07-03T13:31:16;33.09;34.25
64563;SHT31;50961;48.184;11.636;2022-07-03T13:33:42;33.14;34.63
64563;SHT31;50961;48.184;11.636;2022-07-03T13:36:08;33.29;33.74
64563;SHT31;50961;48.184;11.636;2022-07-03T13:38:33;33.27;34.39
64563;SHT31;50961;48.184;11.636;2022-07-03T13:40:58;33.27;33.62
64563;SHT31;50961;48.184;11.636;2022-07-03T13:43:24;33.43;34.53
64563;SHT31;50961;48.184;11.636;2022-07-03T13:45:49;33.19;33.00
64563;SHT31;50961;48.184;11.636;2022-07-03T13:48:15;33.22;33.70
64563;SHT31;50961;48.184;11.636;2022-07-03T13:50:43;33.20;33.31
64563;SHT31;50961;48.184;11.636;2022-07-03T13:53:08;32.99;32.77
64563;SHT31;50961;48.184;11.636;2022-07-03T13:55:34;32.99;34.21
64563;SHT31;50961;48.184;11.636;2022-07-03T13:58:00;33.00;34.32
64563;SHT31;50961;48.184;11.636;2022-07-03T14:00:29;33.05;34.71
64563;SHT31;50961;48.184;11.636;2022-07-03T14:02:55;33.14;34.50
64563;SHT31;50961;48.184;11.636;2022-07-03T14:05:20;33.20;35.51
64563;SHT31;50961;48.184;11.636;2022-07-03T14:07:46;33.12;34.69
64563;SHT31;50961;48.184;11.636;2022-07-03T14:10:12;33.05;34.59
64563;SHT31;50961;48.184;11.636;2022-07-03T14:12:38;33.17;34.19
64563;SHT31;50961;48.184;11.636;2022-07-03T14:15:03;33.27;33.74
64563;SHT31;50961;48.184;11.636;2022-07-03T14:17:29;33.10;33.94
64563;SHT31;50961;48.184;11.636;2022-07-03T14:19:54;33.19;35.30
64563;SHT31;50961;48.184;11.636;2022-07-03T14:22:20;32.96;32.63
64563;SHT31;50961;48.184;11.636;2022-07-03T14:24:45;33.10;34.52
64563;SHT31;50961;48.184;11.636;2022-07-03T14:27:11;33.07;34.11
64563;SHT31;50961;48.184;11.636;2022-07-03T14:29:54;32.98;32.93
64563;SHT31;50961;48.184;11.636;2022-07-03T14:32:38;33.00;33.64
64563;SHT31;50961;48.184;11.636;2022-07-03T14:35:04;32.89;33.93
64563;SHT31;50961;48.184;11.636;2022-07-03T14:37:30;33.02;34.96
64563;SHT31;50961;48.184;11.636;2022-07-03T14:39:56;33.00;34.98
64563;SHT31;50961;48.184;11.636;2022-07-03T14:42:21;33.07;34.57
64563;SHT31;50961;48.184;11.636;2022-07-03T14:44:47;33.17;35.33
64563;SHT31;50961;48.184;11.636;2022-07-03T14:47:13;33.29;34.89
64563;SHT31;50961;48.184;11.636;2022-07-03T14:49:38;33.17;34.43
64563;SHT31;50961;48.184;11.636;2022-07-03T14:52:05;33.05;34.41
64563;SHT31;50961;48.184;11.636;2022-07-03T14:54:31;33.00;34.26
64563;SHT31;50961;48.184;11.636;2022-07-03T14:56:59;33.12;34.87
64563;SHT31;50961;48.184;11.636;2022-07-03T14:59:30;33.00;33.78
64563;SHT31;50961;48.184;11.636;2022-07-03T15:02:00;32.87;32.83
64563;SHT31;50961;48.184;11.636;2022-07-03T15:04:40;32.80;32.71
64563;SHT31;50961;48.184;11.636;2022-07-03T15:07:09;32.78;32.71
64563;SHT31;50961;48.184;11.636;2022-07-03T15:09:37;32.78;33.34
64563;SHT31;50961;48.184;11.636;2022-07-03T15:12:05;32.86;33.72
64563;SHT31;50961;48.184;11.636;2022-07-03T15:14:51;32.69;31.84
64563;SHT31;50961;48.184;11.636;2022-07-03T15:17:20;32.69;33.11
64563;SHT31;50961;48.184;11.636;2022-07-03T15:19:47;32.64;34.77
64563;SHT31;50961;48.184;11.636;2022-07-03T15:22:14;32.72;33.96
64563;SHT31;50961;48.184;11.636;2022-07-03T15:24:40;32.52;32.34
64563;SHT31;50961;48.184;11.636;2022-07-03T15:27:06;32.44;32.45
64563;SHT31;50961;48.184;11.636;2022-07-03T15:29:35;32.32;33.85
64563;SHT31;50961;48.184;11.636;2022-07-03T15:32:03;32.34;34.54
64563;SHT31;50961;48.184;11.636;2022-07-03T15:34:29;32.44;34.24
64563;SHT31;50961;48.184;11.636;2022-07-03T15:36:58;32.34;32.42
64563;SHT31;50961;48.184;11.636;2022-07-03T15:39:38;32.25;32.17
64563;SHT31;50961;48.184;11.636;2022-07-03T15:42:18;32.14;32.98
64563;SHT31;50961;48.184;11.636;2022-07-03T15:45:11;32.06;33.90
64563;SHT31;50961;48.184;11.636;2022-07-03T15:48:03;32.06;34.51
64563;SHT31;50961;48.184;11.636;2022-07-03T15:53:16;32.14;34.15
64563;SHT31;50961;48.184;11.636;2022-07-03T15:55:43;32.13;34.30
64563;SHT31;50961;48.184;11.636;2022-07-03T15:58:12;32.09;33.59
64563;SHT31;50961;48.184;11.636;2022-07-03T16:00:39;32.04;33.30
64563;SHT31;50961;48.184;11.636;2022-07-03T16:03:19;32.00;33.16
64563;SHT31;50961;48.184;11.636;2022-07-03T16:05:47;31.84;34.11
64563;SHT31;50961;48.184;11.636;2022-07-03T16:08:14;31.86;35.55
64563;SHT31;50961;48.184;11.636;2022-07-03T16:10:42;31.86;34.44
64563;SHT31;50961;48.184;11.636;2022-07-03T16:13:08;31.89;35.22
64563;SHT31;50961;48.184;11.636;2022-07-03T16:15:38;31.97;35.40
64563;SHT31;50961;48.184;11.636;2022-07-03T16:18:05;31.92;35.43
64563;SHT31;50961;48.184;11.636;2022-07-03T16:20:31;31.93;35.48
64563;SHT31;50961;48.184;11.636;2022-07-03T16:23:05;31.89;34.65
64563;SHT31;50961;48.184;11.636;2022-07-03T16:25:32;31.94;35.53